createdAt,value
2022-09-18T00:01:21.000Z,101176.88
2022-09-18T00:03:47.834Z,101166.69
2022-09-18T00:06:18.979Z,101178.25
2022-09-18T00:08:52.297Z,101168.34
2022-09-18T00:11:21.581Z,101168.44
2022-09-18T00:13:48.714Z,101174.19
2022-09-18T00:16:17.696Z,101172.00
2022-09-18T00:18:44.797Z,101168.94
2022-09-18T00:21:24.471Z,101179.63
2022-09-18T00:23:58.829Z,101166.31
2022-09-18T00:26:26.267Z,101168.47
2022-09-18T00:28:54.394Z,101174.78
2022-09-18T00:31:27.894Z,101179.03
2022-09-18T00:33:54.897Z,101168.34
2022-09-18T00:36:22.631Z,101174.41
2022-09-18T00:38:50.170Z,101171.69
2022-09-18T00:41:25.559Z,101166.06
2022-09-18T00:43:56.934Z,101167.28
2022-09-18T00:46:35.761Z,101163.63
2022-09-18T00:49:23.802Z,101161.31
2022-09-18T00:51:54.815Z,101161.44
2022-09-18T00:54:36.147Z,101167.53
2022-09-18T00:57:07.884Z,101187.25
2022-09-18T00:59:36.713Z,101196.06
2022-09-18T01:02:05.106Z,101188.78
2022-09-18T01:04:32.419Z,101223.75
2022-09-18T01:07:15.338Z,101216.13
2022-09-18T01:10:02.608Z,101197.75
2022-09-18T01:12:56.426Z,101185.94
2022-09-18T01:15:34.820Z,101177.72
2022-09-18T01:18:21.119Z,101170.56
2022-09-18T01:21:03.339Z,101172.81
2022-09-18T01:23:45.560Z,101165.97
2022-09-18T01:26:41.060Z,101162.34
2022-09-18T01:29:46.981Z,101163.63
2022-09-18T01:32:30.242Z,101161.81
2022-09-18T01:35:42.694Z,101172.53
2022-09-18T01:38:29.208Z,101159.31
2022-09-18T01:41:02.569Z,101160.06
2022-09-18T01:43:31.625Z,101157.72
2022-09-18T01:46:04.539Z,101157.97
2022-09-18T01:48:39.621Z,101157.25
2022-09-18T01:51:17.125Z,101152.66
2022-09-18T01:53:49.604Z,101148.16
2022-09-18T01:56:41.473Z,101160.19
2022-09-18T01:59:16.068Z,101142.25
2022-09-18T02:01:53.978Z,101144.50
2022-09-18T02:04:28.155Z,101143.66
2022-09-18T02:07:04.980Z,101142.34
2022-09-18T02:09:31.906Z,101139.22
2022-09-18T02:12:03.615Z,101135.75
2022-09-18T02:14:38.698Z,101140.38
2022-09-18T02:17:27.196Z,101130.72
2022-09-18T02:20:00.939Z,101133.88
2022-09-18T02:22:32.387Z,101126.53
2022-09-18T02:25:02.703Z,101118.94
2022-09-18T02:27:32.172Z,101128.16
2022-09-18T02:30:01.919Z,101139.41
2022-09-18T02:32:29.893Z,101136.78
2022-09-18T02:34:57.062Z,101126.75
2022-09-18T02:37:48.197Z,101125.53
2022-09-18T02:40:36.356Z,101125.44
2022-09-18T02:43:17.109Z,101119.91
2022-09-18T02:45:52.757Z,101114.44
2022-09-18T02:48:42.586Z,101116.28
2022-09-18T02:51:24.883Z,101108.47
2022-09-18T02:54:00.832Z,101114.00
2022-09-18T02:56:39.551Z,101114.91
2022-09-18T02:59:18.513Z,101115.56
2022-09-18T03:01:54.345Z,101106.84
2022-09-18T03:04:24.650Z,101115.88
2022-09-18T03:06:58.357Z,101113.19
2022-09-18T03:09:26.017Z,101111.56
2022-09-18T03:11:54.055Z,101109.91
2022-09-18T03:14:21.653Z,101111.06
2022-09-18T03:16:48.459Z,101106.16
2022-09-18T03:19:15.379Z,101107.69
2022-09-18T03:21:43.722Z,101102.41
2022-09-18T03:24:12.299Z,101095.81
2022-09-18T03:26:42.195Z,101093.75
2022-09-18T03:29:10.432Z,101097.47
2022-09-18T03:31:39.900Z,101090.94
2022-09-18T03:34:07.113Z,101094.63
2022-09-18T03:36:34.554Z,101092.59
2022-09-18T03:39:02.033Z,101097.97
2022-09-18T03:41:30.142Z,101089.84
2022-09-18T03:43:57.464Z,101096.75
2022-09-18T03:46:25.014Z,101094.28
2022-09-18T03:48:55.571Z,101094.06
2022-09-18T03:51:24.157Z,101098.53
2022-09-18T03:53:51.284Z,101088.53
2022-09-18T03:56:33.305Z,101094.06
2022-09-18T03:59:09.693Z,101078.69
2022-09-18T04:02:02.664Z,101089.81
2022-09-18T04:04:29.995Z,101091.06
2022-09-18T04:07:15.394Z,101089.75
2022-09-18T04:10:05.555Z,101087.88
2022-09-18T04:12:32.461Z,101087.88
2022-09-18T04:15:17.003Z,101091.41
2022-09-18T04:17:43.889Z,101097.66
2022-09-18T04:20:11.737Z,101090.00
2022-09-18T04:22:38.614Z,101086.50
2022-09-18T04:25:06.634Z,101094.47
2022-09-18T04:27:34.866Z,101092.44
2022-09-18T04:30:02.136Z,101088.31
2022-09-18T04:32:32.543Z,101092.69
2022-09-18T04:34:59.445Z,101085.22
2022-09-18T04:37:27.273Z,101090.31
2022-09-18T04:39:54.285Z,101089.53
2022-09-18T04:42:21.763Z,101090.00
2022-09-18T04:44:49.938Z,101084.16
2022-09-18T04:47:16.778Z,101089.03
2022-09-18T04:49:43.694Z,101085.19
2022-09-18T04:52:10.720Z,101082.22
2022-09-18T04:54:38.164Z,101075.66
2022-09-18T04:57:05.862Z,101072.91
2022-09-18T04:59:32.920Z,101075.81
2022-09-18T05:01:59.807Z,101067.91
2022-09-18T05:04:26.827Z,101080.28
2022-09-18T05:07:00.165Z,101070.31
2022-09-18T05:09:27.327Z,101082.38
2022-09-18T05:11:54.585Z,101088.69
2022-09-18T05:14:23.513Z,101081.91
2022-09-18T05:16:54.133Z,101082.66
2022-09-18T05:19:41.506Z,101074.09
2022-09-18T05:22:17.931Z,101081.56
2022-09-18T05:24:48.291Z,101083.69
2022-09-18T05:27:15.140Z,101112.44
2022-09-18T05:29:42.821Z,101099.63
2022-09-18T05:32:14.399Z,101079.69
2022-09-18T05:34:42.925Z,101089.22
2022-09-18T05:37:10.629Z,101072.63
2022-09-18T05:39:39.458Z,101070.69
2022-09-18T05:42:06.613Z,101063.00
2022-09-18T05:44:33.453Z,101069.06
2022-09-18T05:47:01.334Z,101069.06
2022-09-18T05:49:28.634Z,101076.94
2022-09-18T05:51:56.759Z,101071.56
2022-09-18T05:54:23.569Z,101070.84
2022-09-18T05:56:51.278Z,101078.13
2022-09-18T05:59:18.059Z,101078.25
2022-09-18T06:01:47.719Z,101067.78
2022-09-18T06:04:25.558Z,101067.56
2022-09-18T06:06:58.167Z,101067.66
2022-09-18T06:09:26.202Z,101065.91
2022-09-18T06:11:53.308Z,101064.84
2022-09-18T06:14:20.180Z,101061.00
2022-09-18T06:16:47.824Z,101061.66
2022-09-18T06:19:14.911Z,101067.31
2022-09-18T06:21:44.668Z,101088.53
2022-09-18T06:24:15.385Z,101087.03
2022-09-18T06:26:49.834Z,101083.72
2022-09-18T06:29:17.021Z,101074.59
2022-09-18T06:31:52.394Z,101064.94
2022-09-18T06:34:22.221Z,101065.81
2022-09-18T06:36:49.814Z,101075.03
2022-09-18T06:39:36.845Z,101074.75
2022-09-18T06:42:04.607Z,101069.97
2022-09-18T06:44:46.862Z,101067.91
2022-09-18T06:47:16.306Z,101072.59
2022-09-18T06:49:46.013Z,101064.25
2022-09-18T06:52:12.960Z,101067.34
2022-09-18T06:54:40.431Z,101061.09
2022-09-18T06:57:07.710Z,101064.97
2022-09-18T06:59:34.496Z,101065.25
2022-09-18T07:02:01.425Z,101059.72
2022-09-18T07:04:49.448Z,101064.63
2022-09-18T07:07:17.977Z,101062.03
2022-09-18T07:09:47.911Z,101061.13
2022-09-18T07:12:22.696Z,101054.97
2022-09-18T07:14:53.809Z,101059.97
2022-09-18T07:17:26.039Z,101059.69
2022-09-18T07:19:54.507Z,101064.25
2022-09-18T07:22:25.700Z,101063.72
2022-09-18T07:24:52.577Z,101061.28
2022-09-18T07:27:19.472Z,101058.28
2022-09-18T07:29:48.974Z,101058.91
2022-09-18T07:32:15.943Z,101068.97
2022-09-18T07:34:45.369Z,101074.25
2022-09-18T07:37:18.264Z,101078.97
2022-09-18T07:39:52.031Z,101065.09
2022-09-18T07:43:08.877Z,101066.47
2022-09-18T07:45:39.163Z,101062.78
2022-09-18T07:48:07.583Z,101055.66
2022-09-18T07:50:40.584Z,101054.16
2022-09-18T07:53:10.095Z,101064.72
2022-09-18T07:55:39.899Z,101076.38
2022-09-18T07:58:07.943Z,101071.59
2022-09-18T08:00:53.351Z,101060.91
2022-09-18T08:03:22.067Z,101056.84
2022-09-18T08:06:09.100Z,101057.25
2022-09-18T08:08:36.453Z,101066.31
2022-09-18T08:11:13.357Z,101063.75
2022-09-18T08:13:55.048Z,101065.28
2022-09-18T08:16:38.792Z,101051.56
2022-09-18T08:19:18.189Z,101065.16
2022-09-18T08:21:49.724Z,101055.31
2022-09-18T08:24:17.827Z,101055.00
2022-09-18T08:26:46.021Z,101051.72
2022-09-18T08:29:18.923Z,101046.94
2022-09-18T08:31:52.986Z,101040.88
2022-09-18T08:34:21.323Z,101041.69
2022-09-18T08:36:49.100Z,101040.88
2022-09-18T08:39:22.028Z,101042.75
2022-09-18T08:42:48.695Z,101043.28
2022-09-18T08:45:15.652Z,101044.78
2022-09-18T08:47:51.167Z,101050.94
2022-09-18T08:50:26.598Z,101046.69
2022-09-18T08:53:04.659Z,101051.91
2022-09-18T08:55:42.856Z,101049.44
2022-09-18T08:58:40.375Z,101051.66
2022-09-18T09:01:12.450Z,101047.00
2022-09-18T09:04:17.629Z,101057.41
2022-09-18T09:06:50.473Z,101056.44
2022-09-18T09:09:43.242Z,101074.16
2022-09-18T09:12:55.523Z,101067.06
2022-09-18T09:16:04.117Z,101078.69
2022-09-18T09:18:48.439Z,101073.38
2022-09-18T09:21:23.183Z,101069.75
2022-09-18T09:24:17.251Z,101082.38
2022-09-18T09:27:15.336Z,101074.44
2022-09-18T09:30:07.058Z,101075.53
2022-09-18T09:33:21.409Z,101080.06
2022-09-18T09:36:28.019Z,101082.19
2022-09-18T09:39:00.802Z,101077.53
2022-09-18T09:41:42.556Z,101078.56
2022-09-18T09:44:50.838Z,101086.00
2022-09-18T09:47:32.048Z,101085.34
2022-09-18T09:50:17.533Z,101075.63
2022-09-18T09:52:49.608Z,101089.31
2022-09-18T09:55:28.721Z,101086.63
2022-09-18T09:58:32.749Z,101088.97
2022-09-18T10:01:34.573Z,101090.69
2022-09-18T10:04:21.532Z,101090.59
2022-09-18T10:07:11.697Z,101087.75
2022-09-18T10:10:13.564Z,101086.88
2022-09-18T10:13:01.534Z,101082.84
2022-09-18T10:15:43.210Z,101094.63
2022-09-18T10:18:19.776Z,101099.66
2022-09-18T10:20:52.449Z,101099.81
2022-09-18T10:23:33.545Z,101087.69
2022-09-18T10:26:02.515Z,101096.97
2022-09-18T10:28:31.211Z,101095.31
2022-09-18T10:31:12.748Z,101091.91
2022-09-18T10:33:48.373Z,101096.03
2022-09-18T10:36:35.291Z,101094.72
2022-09-18T10:39:38.897Z,101086.84
2022-09-18T10:42:16.352Z,101078.06
2022-09-18T10:44:56.737Z,101089.91
2022-09-18T10:47:33.949Z,101087.41
2022-09-18T10:50:10.464Z,101080.94
2022-09-18T10:52:44.982Z,101078.78
2022-09-18T10:55:31.053Z,101084.59
2022-09-18T10:58:15.263Z,101075.28
2022-09-18T11:01:00.254Z,101079.00
2022-09-18T11:03:49.789Z,101077.63
2022-09-18T11:06:26.614Z,101081.56
2022-09-18T11:08:59.689Z,101069.69
2022-09-18T11:11:31.308Z,101066.81
2022-09-18T11:14:16.887Z,101073.28
2022-09-18T11:17:07.341Z,101066.41
2022-09-18T11:19:41.124Z,101061.41
2022-09-18T11:22:41.617Z,101056.25
2022-09-18T11:25:31.038Z,101062.84
2022-09-18T11:28:26.331Z,101058.09
2022-09-18T11:31:15.767Z,101059.56
2022-09-18T11:33:56.787Z,101065.84
2022-09-18T11:36:33.229Z,101066.66
2022-09-18T11:39:14.892Z,101065.31
2022-09-18T11:41:44.212Z,101078.78
2022-09-18T11:44:24.286Z,101066.38
2022-09-18T11:47:10.229Z,101063.41
2022-09-18T11:49:46.986Z,101064.44
2022-09-18T11:52:16.922Z,101055.75
2022-09-18T11:54:56.805Z,101050.22
2022-09-18T11:57:38.611Z,101049.13
2022-09-18T12:00:11.092Z,101036.38
2022-09-18T12:03:24.760Z,101029.97
2022-09-18T12:06:06.763Z,101029.06
2022-09-18T12:08:32.329Z,101022.28
2022-09-18T12:11:28.774Z,101028.22
2022-09-18T12:14:12.903Z,101033.31
2022-09-18T12:17:00.638Z,101026.72
2022-09-18T12:19:41.234Z,101035.81
2022-09-18T12:22:27.074Z,101041.59
2022-09-18T12:24:54.710Z,101049.03
2022-09-18T12:27:55.105Z,101046.72
2022-09-18T12:30:28.777Z,101042.72
2022-09-18T12:33:04.436Z,101054.50
2022-09-18T12:35:52.498Z,101046.81
2022-09-18T12:38:44.690Z,101036.00
2022-09-18T12:41:45.253Z,101039.72
2022-09-18T12:44:47.374Z,101037.22
2022-09-18T12:47:46.953Z,101030.06
2022-09-18T12:50:31.875Z,101036.19
2022-09-18T12:53:17.065Z,101036.38
2022-09-18T12:56:00.045Z,101032.50
2022-09-18T12:58:54.322Z,101032.38
2022-09-18T13:01:32.920Z,101044.28
2022-09-18T13:04:15.993Z,101037.03
2022-09-18T13:06:51.265Z,101040.66
2022-09-18T13:09:26.407Z,101040.59
2022-09-18T13:12:05.465Z,101067.81
2022-09-18T13:14:40.111Z,101035.34
2022-09-18T13:17:13.791Z,101060.75
2022-09-18T13:19:53.791Z,101045.75
2022-09-18T13:22:22.900Z,101042.47
2022-09-18T13:24:53.410Z,101047.53
2022-09-18T13:27:22.540Z,101034.34
2022-09-18T13:29:52.178Z,101044.94
2022-09-18T13:32:35.204Z,101032.75
2022-09-18T13:35:12.527Z,101035.38
2022-09-18T13:37:41.317Z,101047.22
2022-09-18T13:40:27.124Z,101038.44
2022-09-18T13:42:54.243Z,101030.22
2022-09-18T13:45:24.996Z,101022.66
2022-09-18T13:48:06.866Z,101020.19
2022-09-18T13:50:36.276Z,101016.34
2022-09-18T13:53:05.039Z,101020.66
2022-09-18T13:55:37.765Z,101010.19
2022-09-18T13:58:36.920Z,101018.84
2022-09-18T14:01:08.100Z,101020.88
2022-09-18T14:03:39.084Z,101022.41
2022-09-18T14:06:35.260Z,101021.94
2022-09-18T14:09:21.696Z,101016.22
2022-09-18T14:11:48.658Z,101015.66
2022-09-18T14:14:22.791Z,101009.31
2022-09-18T14:16:50.843Z,101021.56
2022-09-18T14:19:31.835Z,101010.97
2022-09-18T14:22:01.344Z,101010.50
2022-09-18T14:24:39.049Z,101000.03
2022-09-18T14:27:24.599Z,101009.88
2022-09-18T14:29:56.390Z,101027.19
2022-09-18T14:32:24.612Z,101003.41
2022-09-18T14:35:14.358Z,101027.94
2022-09-18T14:37:41.164Z,101022.75
2022-09-18T14:40:27.327Z,101022.97
2022-09-18T14:42:54.650Z,101013.06
2022-09-18T14:45:28.057Z,101022.59
2022-09-18T14:47:55.797Z,101025.25
2022-09-18T14:50:24.404Z,101028.63
2022-09-18T14:52:51.694Z,101033.53
2022-09-18T14:55:22.194Z,101022.88
2022-09-18T14:58:09.404Z,101026.75
2022-09-18T15:00:38.439Z,101021.88
2022-09-18T15:03:14.843Z,101019.00
2022-09-18T15:05:41.730Z,101025.22
2022-09-18T15:08:16.710Z,101018.06
2022-09-18T15:10:47.865Z,101047.50
2022-09-18T15:13:16.727Z,101064.94
2022-09-18T15:15:46.139Z,101064.88
2022-09-18T15:18:24.527Z,101062.25
2022-09-18T15:20:53.251Z,101040.75
2022-09-18T15:23:27.969Z,101052.38
2022-09-18T15:25:59.482Z,101047.16
2022-09-18T15:28:28.907Z,101045.41
2022-09-18T15:31:00.102Z,101020.84
2022-09-18T15:33:27.890Z,101019.13
2022-09-18T15:35:56.845Z,101016.16
2022-09-18T15:38:29.679Z,101016.41
2022-09-18T15:40:56.594Z,101020.16
2022-09-18T15:43:29.627Z,101028.25
2022-09-18T15:46:09.311Z,101025.47
2022-09-18T15:48:44.008Z,101028.13
2022-09-18T15:51:26.228Z,101036.72
2022-09-18T15:54:05.489Z,101043.13
2022-09-18T15:56:36.614Z,101040.69
2022-09-18T15:59:28.515Z,101022.16
2022-09-18T16:01:56.349Z,101025.38
2022-09-18T16:04:27.426Z,101030.31
2022-09-18T16:06:59.611Z,101031.16
2022-09-18T16:09:37.539Z,101021.69
2022-09-18T16:12:29.397Z,101017.28
2022-09-18T16:15:16.494Z,101049.47
2022-09-18T16:17:46.302Z,101069.28
2022-09-18T16:20:30.122Z,101051.19
2022-09-18T16:23:15.392Z,101076.88
2022-09-18T16:25:43.817Z,101082.75
2022-09-18T16:28:31.477Z,101076.31
2022-09-18T16:30:58.282Z,101072.81
2022-09-18T16:33:28.482Z,101068.38
2022-09-18T16:36:10.325Z,101064.19
2022-09-18T16:38:37.193Z,101067.13
2022-09-18T16:41:04.123Z,101053.53
2022-09-18T16:43:30.916Z,101079.75
2022-09-18T16:45:57.804Z,101071.97
2022-09-18T16:48:25.073Z,101086.81
2022-09-18T16:50:51.975Z,101090.56
2022-09-18T16:53:18.908Z,101079.94
2022-09-18T16:55:53.455Z,101070.06
2022-09-18T16:58:22.141Z,101065.13
2022-09-18T17:00:49.133Z,101048.34
2022-09-18T17:03:18.090Z,101056.69
2022-09-18T17:05:45.456Z,101057.47
2022-09-18T17:08:12.435Z,101059.00
2022-09-18T17:10:42.094Z,101069.72
2022-09-18T17:13:12.656Z,101048.19
2022-09-18T17:15:39.655Z,101064.22
2022-09-18T17:18:06.465Z,101059.44
2022-09-18T17:20:34.687Z,101049.06
2022-09-18T17:23:01.603Z,101062.00
2022-09-18T17:25:29.502Z,101067.56
2022-09-18T17:27:56.424Z,101066.91
2022-09-18T17:30:23.254Z,101059.97
2022-09-18T17:32:50.105Z,101056.38
2022-09-18T17:35:17.710Z,101052.88
2022-09-18T17:37:44.646Z,101066.81
2022-09-18T17:40:11.669Z,101056.47
2022-09-18T17:42:39.179Z,101059.25
2022-09-18T17:45:06.413Z,101080.72
2022-09-18T17:47:33.340Z,101088.78
2022-09-18T17:50:05.098Z,101086.91
2022-09-18T17:52:35.997Z,101092.81
2022-09-18T17:55:03.386Z,101098.94
2022-09-18T17:57:31.126Z,101096.19
2022-09-18T17:59:58.174Z,101095.84
2022-09-18T18:02:25.273Z,101089.31
2022-09-18T18:04:52.120Z,101088.28
2022-09-18T18:07:19.051Z,101084.75
2022-09-18T18:09:45.901Z,101073.75
2022-09-18T18:12:12.860Z,101076.16
2022-09-18T18:14:39.837Z,101082.50
2022-09-18T18:17:07.082Z,101116.63
2022-09-18T18:19:34.258Z,101136.22
2022-09-18T18:22:01.083Z,101134.59
2022-09-18T18:24:29.735Z,101145.59
2022-09-18T18:26:57.401Z,101140.16
2022-09-18T18:29:24.900Z,101126.78
2022-09-18T18:31:52.180Z,101125.56
2022-09-18T18:34:22.162Z,101112.34
2022-09-18T18:36:50.249Z,101104.94
2022-09-18T18:39:17.574Z,101104.88
2022-09-18T18:41:44.998Z,101114.16
2022-09-18T18:44:13.256Z,101127.00
2022-09-18T18:46:40.600Z,101122.00
2022-09-18T18:49:12.932Z,101135.75
2022-09-18T18:51:43.714Z,101124.41
2022-09-18T18:54:11.316Z,101125.91
2022-09-18T18:56:38.850Z,101120.81
2022-09-18T18:59:08.788Z,101139.31
2022-09-18T19:01:35.959Z,101136.94
2022-09-18T19:04:07.221Z,101142.03
2022-09-18T19:06:36.501Z,101132.59
2022-09-18T19:09:09.317Z,101131.81
2022-09-18T19:11:42.552Z,101134.28
2022-09-18T19:14:13.289Z,101139.09
2022-09-18T19:16:44.693Z,101139.22
2022-09-18T19:19:13.204Z,101138.06
2022-09-18T19:21:40.578Z,101142.16
2022-09-18T19:24:09.281Z,101149.31
2022-09-18T19:26:39.476Z,101143.41
2022-09-18T19:29:09.064Z,101144.69
2022-09-18T19:31:37.967Z,101151.81
2022-09-18T19:34:05.903Z,101151.19
2022-09-18T19:36:33.522Z,101152.91
2022-09-18T19:39:04.052Z,101154.56
2022-09-18T19:41:41.110Z,101179.31
2022-09-18T19:44:15.742Z,101160.94
2022-09-18T19:46:42.798Z,101171.25
2022-09-18T19:49:17.661Z,101177.81
2022-09-18T19:51:45.645Z,101178.34
2022-09-18T19:54:13.015Z,101182.19
2022-09-18T19:56:46.763Z,101183.63
2022-09-18T19:59:14.974Z,101188.09
2022-09-18T20:01:42.488Z,101187.81
2022-09-18T20:04:09.694Z,101191.38
2022-09-18T20:06:40.612Z,101202.94
2022-09-18T20:09:07.580Z,101198.56
2022-09-18T20:11:35.232Z,101190.94
2022-09-18T20:14:02.075Z,101193.59
2022-09-18T20:16:29.391Z,101189.66
2022-09-18T20:18:56.397Z,101196.69
2022-09-18T20:21:24.131Z,101204.69
2022-09-18T20:23:56.969Z,101216.66
2022-09-18T20:26:24.234Z,101231.50
2022-09-18T20:28:51.374Z,101227.41
2022-09-18T20:31:20.730Z,101219.19
2022-09-18T20:33:47.652Z,101212.84
2022-09-18T20:36:14.488Z,101218.38
2022-09-18T20:38:43.088Z,101217.91
2022-09-18T20:41:14.472Z,101226.47
2022-09-18T20:43:42.452Z,101218.22
2022-09-18T20:46:14.265Z,101214.09
2022-09-18T20:48:43.140Z,101223.91
2022-09-18T20:51:12.159Z,101231.19
2022-09-18T20:53:41.483Z,101228.22
2022-09-18T20:56:10.306Z,101231.81
2022-09-18T20:58:39.124Z,101226.63
2022-09-18T21:01:13.444Z,101228.69
2022-09-18T21:03:44.476Z,101226.94
2022-09-18T21:06:23.350Z,101227.84
2022-09-18T21:08:53.656Z,101227.31
2022-09-18T21:11:27.918Z,101231.69
2022-09-18T21:13:57.354Z,101242.31
2022-09-18T21:16:26.548Z,101248.25
2022-09-18T21:18:56.785Z,101251.28
2022-09-18T21:21:25.698Z,101263.78
2022-09-18T21:23:53.468Z,101263.19
2022-09-18T21:26:24.850Z,101256.94
2022-09-18T21:28:57.639Z,101255.38
2022-09-18T21:31:25.023Z,101255.50
2022-09-18T21:33:53.055Z,101254.09
2022-09-18T21:36:25.326Z,101254.28
2022-09-18T21:38:53.543Z,101256.63
2022-09-18T21:41:22.063Z,101256.44
2022-09-18T21:43:50.662Z,101265.16
2022-09-18T21:46:21.368Z,101278.66
2022-09-18T21:48:52.887Z,101287.78
2022-09-18T21:51:20.365Z,101292.06
2022-09-18T21:53:47.163Z,101288.81
2022-09-18T21:56:18.479Z,101289.09
2022-09-18T21:58:46.653Z,101291.53
2022-09-18T22:01:19.748Z,101286.16
2022-09-18T22:03:53.414Z,101288.81
2022-09-18T22:06:32.102Z,101294.31
2022-09-18T22:08:59.695Z,101295.59
2022-09-18T22:11:30.078Z,101299.91
2022-09-18T22:13:59.168Z,101301.94
2022-09-18T22:16:29.448Z,101309.22
2022-09-18T22:18:56.668Z,101308.31
2022-09-18T22:21:31.975Z,101311.56
2022-09-18T22:24:06.323Z,101314.50
2022-09-18T22:26:39.406Z,101312.34
2022-09-18T22:29:08.569Z,101307.22
2022-09-18T22:31:36.497Z,101317.09
2022-09-18T22:34:03.926Z,101318.13
2022-09-18T22:36:30.934Z,101318.56
2022-09-18T22:38:57.749Z,101325.53
2022-09-18T22:41:25.034Z,101331.28
2022-09-18T22:43:58.183Z,101334.91
2022-09-18T22:46:25.994Z,101336.56
2022-09-18T22:48:53.003Z,101339.41
2022-09-18T22:51:22.473Z,101336.69
2022-09-18T22:53:57.594Z,101340.09
2022-09-18T22:56:26.753Z,101344.81
2022-09-18T22:58:54.911Z,101343.25
2022-09-18T23:01:28.962Z,101344.06
2022-09-18T23:03:56.950Z,101352.53
2022-09-18T23:06:25.829Z,101352.53
2022-09-18T23:08:55.258Z,101353.94
2022-09-18T23:11:25.300Z,101354.56
2022-09-18T23:13:54.999Z,101353.22
2022-09-18T23:16:25.323Z,101349.00
2022-09-18T23:18:55.601Z,101353.03
2022-09-18T23:21:22.956Z,101348.06
2022-09-18T23:23:50.336Z,101339.31
2022-09-18T23:26:20.009Z,101350.59
2022-09-18T23:28:47.579Z,101350.34
2022-09-18T23:31:16.948Z,101357.25
2022-09-18T23:33:48.630Z,101364.13
2022-09-18T23:36:18.971Z,101369.69
2022-09-18T23:38:46.722Z,101370.97
2022-09-18T23:41:16.384Z,101374.09
2022-09-18T23:43:51.598Z,101371.94
2022-09-18T23:46:19.043Z,101370.22
2022-09-18T23:48:47.569Z,101370.44
2022-09-18T23:51:14.413Z,101379.69
2022-09-18T23:53:44.473Z,101371.03
2022-09-18T23:56:16.328Z,101379.34
2022-09-18T23:58:44.780Z,101381.50
